sensor_id;sensor_type;location;lat;lon;timestamp;P1;durP1;ratioP1;P2;durP2;ratioP2
23539;SDS011;11947;50.810;4.394;2022-10-30T00:02:05;29.00;;;8.02;;
23539;SDS011;11947;50.810;4.394;2022-10-30T00:04:31;23.38;;;6.90;;
23539;SDS011;11947;50.810;4.394;2022-10-30T00:06:56;20.83;;;7.00;;
23539;SDS011;11947;50.810;4.394;2022-10-30T00:09:22;21.92;;;7.45;;
23539;SDS011;11947;50.810;4.394;2022-10-30T00:11:48;24.00;;;7.65;;
23539;SDS011;11947;50.810;4.394;2022-10-30T00:14:13;21.92;;;7.68;;
23539;SDS011;11947;50.810;4.394;2022-10-30T00:16:39;20.60;;;6.95;;
23539;SDS011;11947;50.810;4.394;2022-10-30T00:19:05;19.60;;;7.20;;
23539;SDS011;11947;50.810;4.394;2022-10-30T00:21:30;21.35;;;7.63;;
23539;SDS011;11947;50.810;4.394;2022-10-30T00:23:56;21.95;;;7.88;;
23539;SDS011;11947;50.810;4.394;2022-10-30T00:26:23;25.60;;;8.20;;
23539;SDS011;11947;50.810;4.394;2022-10-30T00:28:53;23.67;;;8.40;;
23539;SDS011;11947;50.810;4.394;2022-10-30T00:31:20;23.42;;;8.07;;
23539;SDS011;11947;50.810;4.394;2022-10-30T00:33:47;19.10;;;8.23;;
23539;SDS011;11947;50.810;4.394;2022-10-30T00:36:14;20.42;;;7.70;;
23539;SDS011;11947;50.810;4.394;2022-10-30T00:38:40;21.17;;;8.85;;
23539;SDS011;11947;50.810;4.394;2022-10-30T00:41:06;20.80;;;9.00;;
23539;SDS011;11947;50.810;4.394;2022-10-30T00:43:36;18.63;;;8.60;;
23539;SDS011;11947;50.810;4.394;2022-10-30T00:46:14;29.48;;;8.88;;
23539;SDS011;11947;50.810;4.394;2022-10-30T00:48:41;27.52;;;8.75;;
23539;SDS011;11947;50.810;4.394;2022-10-30T00:51:12;26.80;;;9.10;;
23539;SDS011;11947;50.810;4.394;2022-10-30T00:53:39;26.75;;;9.07;;
23539;SDS011;11947;50.810;4.394;2022-10-30T00:56:06;26.05;;;8.68;;
23539;SDS011;11947;50.810;4.394;2022-10-30T00:58:35;25.15;;;8.23;;
23539;SDS011;11947;50.810;4.394;2022-10-30T01:01:10;24.90;;;8.82;;
23539;SDS011;11947;50.810;4.394;2022-10-30T01:03:40;24.08;;;7.88;;
23539;SDS011;11947;50.810;4.394;2022-10-30T01:06:06;21.77;;;8.52;;
23539;SDS011;11947;50.810;4.394;2022-10-30T01:08:35;21.23;;;7.70;;
23539;SDS011;11947;50.810;4.394;2022-10-30T01:11:02;24.42;;;8.15;;
23539;SDS011;11947;50.810;4.394;2022-10-30T01:13:29;24.70;;;7.65;;
23539;SDS011;11947;50.810;4.394;2022-10-30T01:18:52;17.60;;;7.95;;
23539;SDS011;11947;50.810;4.394;2022-10-30T01:21:35;24.02;;;8.40;;
23539;SDS011;11947;50.810;4.394;2022-10-30T01:24:18;29.63;;;8.85;;
23539;SDS011;11947;50.810;4.394;2022-10-30T01:38:28;21.67;;;9.80;;
23539;SDS011;11947;50.810;4.394;2022-10-30T01:41:00;26.33;;;8.77;;
23539;SDS011;11947;50.810;4.394;2022-10-30T01:43:25;24.55;;;8.75;;
23539;SDS011;11947;50.810;4.394;2022-10-30T01:46:01;27.98;;;9.82;;
23539;SDS011;11947;50.810;4.394;2022-10-30T01:53:58;24.75;;;9.63;;
23539;SDS011;11947;50.810;4.394;2022-10-30T01:56:37;25.23;;;8.63;;
23539;SDS011;11947;50.810;4.394;2022-10-30T01:59:23;27.50;;;9.20;;
23539;SDS011;11947;50.810;4.394;2022-10-30T02:02:00;20.30;;;9.32;;
23539;SDS011;11947;50.810;4.394;2022-10-30T02:04:29;28.02;;;8.43;;
23539;SDS011;11947;50.810;4.394;2022-10-30T02:06:56;24.42;;;8.68;;
23539;SDS011;11947;50.810;4.394;2022-10-30T02:09:22;25.23;;;9.20;;
23539;SDS011;11947;50.810;4.394;2022-10-30T02:11:48;24.80;;;9.23;;
23539;SDS011;11947;50.810;4.394;2022-10-30T02:14:17;31.95;;;8.88;;
23539;SDS011;11947;50.810;4.394;2022-10-30T02:16:51;27.80;;;8.55;;
23539;SDS011;11947;50.810;4.394;2022-10-30T02:19:19;29.08;;;8.40;;
23539;SDS011;11947;50.810;4.394;2022-10-30T02:21:44;23.50;;;8.98;;
23539;SDS011;11947;50.810;4.394;2022-10-30T02:24:11;22.38;;;8.48;;
23539;SDS011;11947;50.810;4.394;2022-10-30T02:26:37;21.40;;;9.00;;
23539;SDS011;11947;50.810;4.394;2022-10-30T02:29:02;21.35;;;8.35;;
23539;SDS011;11947;50.810;4.394;2022-10-30T02:31:28;26.00;;;8.77;;
23539;SDS011;11947;50.810;4.394;2022-10-30T02:33:54;27.90;;;9.20;;
23539;SDS011;11947;50.810;4.394;2022-10-30T02:36:20;19.10;;;9.07;;
23539;SDS011;11947;50.810;4.394;2022-10-30T02:38:45;24.58;;;8.75;;
23539;SDS011;11947;50.810;4.394;2022-10-30T02:41:11;22.63;;;9.23;;
23539;SDS011;11947;50.810;4.394;2022-10-30T02:43:36;18.63;;;8.52;;
23539;SDS011;11947;50.810;4.394;2022-10-30T02:46:02;27.48;;;8.95;;
23539;SDS011;11947;50.810;4.394;2022-10-30T02:48:29;23.70;;;9.07;;
23539;SDS011;11947;50.810;4.394;2022-10-30T02:51:00;30.00;;;9.00;;
23539;SDS011;11947;50.810;4.394;2022-10-30T02:53:26;30.23;;;9.43;;
23539;SDS011;11947;50.810;4.394;2022-10-30T02:55:52;25.08;;;8.85;;
23539;SDS011;11947;50.810;4.394;2022-10-30T02:58:18;24.33;;;9.85;;
23539;SDS011;11947;50.810;4.394;2022-10-30T03:00:43;24.48;;;9.85;;
23539;SDS011;11947;50.810;4.394;2022-10-30T03:03:10;32.83;;;9.48;;
23539;SDS011;11947;50.810;4.394;2022-10-30T03:05:36;24.08;;;9.82;;
23539;SDS011;11947;50.810;4.394;2022-10-30T03:08:02;25.42;;;9.45;;
23539;SDS011;11947;50.810;4.394;2022-10-30T03:10:27;24.50;;;9.80;;
23539;SDS011;11947;50.810;4.394;2022-10-30T03:12:54;23.55;;;9.52;;
23539;SDS011;11947;50.810;4.394;2022-10-30T03:15:19;21.73;;;9.77;;
23539;SDS011;11947;50.810;4.394;2022-10-30T03:17:45;22.40;;;9.20;;
23539;SDS011;11947;50.810;4.394;2022-10-30T03:20:11;20.55;;;9.40;;
23539;SDS011;11947;50.810;4.394;2022-10-30T03:22:37;33.30;;;10.38;;
23539;SDS011;11947;50.810;4.394;2022-10-30T03:25:03;22.48;;;9.18;;
23539;SDS011;11947;50.810;4.394;2022-10-30T03:27:29;27.52;;;9.70;;
23539;SDS011;11947;50.810;4.394;2022-10-30T03:29:55;24.95;;;9.50;;
23539;SDS011;11947;50.810;4.394;2022-10-30T03:32:20;25.15;;;9.77;;
23539;SDS011;11947;50.810;4.394;2022-10-30T03:34:46;26.75;;;8.77;;
23539;SDS011;11947;50.810;4.394;2022-10-30T03:37:12;30.88;;;9.63;;
23539;SDS011;11947;50.810;4.394;2022-10-30T03:39:37;24.58;;;9.35;;
23539;SDS011;11947;50.810;4.394;2022-10-30T03:42:03;26.08;;;9.45;;
23539;SDS011;11947;50.810;4.394;2022-10-30T03:44:29;24.83;;;9.27;;
23539;SDS011;11947;50.810;4.394;2022-10-30T03:46:54;20.52;;;8.77;;
23539;SDS011;11947;50.810;4.394;2022-10-30T03:49:20;23.80;;;8.32;;
23539;SDS011;11947;50.810;4.394;2022-10-30T03:51:46;25.92;;;8.73;;
23539;SDS011;11947;50.810;4.394;2022-10-30T03:54:11;23.10;;;8.73;;
23539;SDS011;11947;50.810;4.394;2022-10-30T03:56:37;24.15;;;8.85;;
23539;SDS011;11947;50.810;4.394;2022-10-30T03:59:02;21.80;;;8.32;;
23539;SDS011;11947;50.810;4.394;2022-10-30T04:01:28;26.92;;;9.25;;
23539;SDS011;11947;50.810;4.394;2022-10-30T04:03:53;22.65;;;8.70;;
23539;SDS011;11947;50.810;4.394;2022-10-30T04:06:19;19.77;;;8.77;;
23539;SDS011;11947;50.810;4.394;2022-10-30T04:08:45;24.27;;;8.95;;
23539;SDS011;11947;50.810;4.394;2022-10-30T04:11:10;27.27;;;8.23;;
23539;SDS011;11947;50.810;4.394;2022-10-30T04:13:36;26.95;;;9.32;;
23539;SDS011;11947;50.810;4.394;2022-10-30T04:16:02;22.45;;;8.30;;
23539;SDS011;11947;50.810;4.394;2022-10-30T04:18:28;20.48;;;9.52;;
23539;SDS011;11947;50.810;4.394;2022-10-30T04:20:54;28.55;;;9.25;;
23539;SDS011;11947;50.810;4.394;2022-10-30T04:23:20;22.02;;;9.15;;
23539;SDS011;11947;50.810;4.394;2022-10-30T04:25:46;19.85;;;8.95;;
23539;SDS011;11947;50.810;4.394;2022-10-30T04:28:12;24.90;;;9.50;;
23539;SDS011;11947;50.810;4.394;2022-10-30T04:30:38;28.17;;;9.43;;
23539;SDS011;11947;50.810;4.394;2022-10-30T04:33:05;23.58;;;9.10;;
23539;SDS011;11947;50.810;4.394;2022-10-30T04:35:34;27.35;;;9.52;;
23539;SDS011;11947;50.810;4.394;2022-10-30T04:38:02;22.50;;;9.05;;
23539;SDS011;11947;50.810;4.394;2022-10-30T04:40:31;23.95;;;9.48;;
23539;SDS011;11947;50.810;4.394;2022-10-30T04:42:58;31.38;;;9.63;;
23539;SDS011;11947;50.810;4.394;2022-10-30T04:45:24;22.73;;;8.90;;
23539;SDS011;11947;50.810;4.394;2022-10-30T04:47:51;24.60;;;9.18;;
23539;SDS011;11947;50.810;4.394;2022-10-30T04:50:17;23.58;;;9.35;;
23539;SDS011;11947;50.810;4.394;2022-10-30T04:52:43;24.42;;;9.70;;
23539;SDS011;11947;50.810;4.394;2022-10-30T04:55:09;24.52;;;10.13;;
23539;SDS011;11947;50.810;4.394;2022-10-30T04:57:36;28.15;;;10.10;;
23539;SDS011;11947;50.810;4.394;2022-10-30T05:00:05;27.77;;;9.25;;
23539;SDS011;11947;50.810;4.394;2022-10-30T05:02:35;27.63;;;9.88;;
23539;SDS011;11947;50.810;4.394;2022-10-30T05:05:01;24.13;;;9.80;;
23539;SDS011;11947;50.810;4.394;2022-10-30T05:07:27;27.38;;;9.75;;
23539;SDS011;11947;50.810;4.394;2022-10-30T05:09:53;20.48;;;10.50;;
23539;SDS011;11947;50.810;4.394;2022-10-30T05:12:19;25.70;;;9.70;;
23539;SDS011;11947;50.810;4.394;2022-10-30T05:14:46;30.58;;;9.98;;
23539;SDS011;11947;50.810;4.394;2022-10-30T05:17:11;22.65;;;10.25;;
23539;SDS011;11947;50.810;4.394;2022-10-30T05:19:37;28.77;;;9.48;;
23539;SDS011;11947;50.810;4.394;2022-10-30T05:22:03;24.70;;;10.52;;
23539;SDS011;11947;50.810;4.394;2022-10-30T05:24:29;24.17;;;9.20;;
23539;SDS011;11947;50.810;4.394;2022-10-30T05:26:54;23.25;;;10.10;;
23539;SDS011;11947;50.810;4.394;2022-10-30T05:29:20;25.13;;;10.45;;
23539;SDS011;11947;50.810;4.394;2022-10-30T05:31:45;27.58;;;10.77;;
23539;SDS011;11947;50.810;4.394;2022-10-30T05:34:11;27.33;;;11.40;;
23539;SDS011;11947;50.810;4.394;2022-10-30T05:36:39;28.80;;;10.98;;
23539;SDS011;11947;50.810;4.394;2022-10-30T05:39:05;28.70;;;10.77;;
23539;SDS011;11947;50.810;4.394;2022-10-30T05:41:31;25.92;;;10.50;;
23539;SDS011;11947;50.810;4.394;2022-10-30T05:43:56;24.92;;;10.60;;
23539;SDS011;11947;50.810;4.394;2022-10-30T05:46:22;25.30;;;10.68;;
23539;SDS011;11947;50.810;4.394;2022-10-30T05:48:47;31.08;;;10.52;;
23539;SDS011;11947;50.810;4.394;2022-10-30T05:51:13;23.63;;;10.63;;
23539;SDS011;11947;50.810;4.394;2022-10-30T05:53:39;28.13;;;10.30;;
23539;SDS011;11947;50.810;4.394;2022-10-30T05:56:05;20.63;;;10.02;;
23539;SDS011;11947;50.810;4.394;2022-10-30T05:58:30;25.75;;;9.82;;
23539;SDS011;11947;50.810;4.394;2022-10-30T06:00:56;26.55;;;10.00;;
23539;SDS011;11947;50.810;4.394;2022-10-30T06:03:21;28.10;;;10.25;;
23539;SDS011;11947;50.810;4.394;2022-10-30T06:05:47;24.95;;;10.27;;
23539;SDS011;11947;50.810;4.394;2022-10-30T06:08:13;22.60;;;10.38;;
23539;SDS011;11947;50.810;4.394;2022-10-30T06:10:40;25.65;;;10.63;;
23539;SDS011;11947;50.810;4.394;2022-10-30T06:13:06;24.27;;;10.27;;
23539;SDS011;11947;50.810;4.394;2022-10-30T06:15:32;25.70;;;10.50;;
23539;SDS011;11947;50.810;4.394;2022-10-30T06:17:58;27.52;;;10.57;;
23539;SDS011;11947;50.810;4.394;2022-10-30T06:20:25;25.55;;;11.18;;
23539;SDS011;11947;50.810;4.394;2022-10-30T06:22:56;23.00;;;11.18;;
23539;SDS011;11947;50.810;4.394;2022-10-30T06:25:28;29.98;;;10.60;;
23539;SDS011;11947;50.810;4.394;2022-10-30T06:27:55;27.38;;;10.32;;
23539;SDS011;11947;50.810;4.394;2022-10-30T06:30:21;21.70;;;10.43;;
23539;SDS011;11947;50.810;4.394;2022-10-30T06:32:47;30.02;;;10.75;;
23539;SDS011;11947;50.810;4.394;2022-10-30T06:35:13;25.25;;;10.88;;
23539;SDS011;11947;50.810;4.394;2022-10-30T06:37:48;24.00;;;10.27;;
23539;SDS011;11947;50.810;4.394;2022-10-30T06:40:15;31.65;;;10.80;;
23539;SDS011;11947;50.810;4.394;2022-10-30T06:42:43;31.08;;;11.13;;
23539;SDS011;11947;50.810;4.394;2022-10-30T06:45:11;34.85;;;10.88;;
23539;SDS011;11947;50.810;4.394;2022-10-30T06:47:37;30.23;;;12.00;;
23539;SDS011;11947;50.810;4.394;2022-10-30T06:50:04;30.80;;;11.05;;
23539;SDS011;11947;50.810;4.394;2022-10-30T06:52:31;23.60;;;10.68;;
23539;SDS011;11947;50.810;4.394;2022-10-30T06:54:57;23.00;;;10.85;;
23539;SDS011;11947;50.810;4.394;2022-10-30T06:57:23;24.60;;;11.32;;
23539;SDS011;11947;50.810;4.394;2022-10-30T06:59:48;24.33;;;11.10;;
23539;SDS011;11947;50.810;4.394;2022-10-30T07:02:14;28.17;;;11.35;;
23539;SDS011;11947;50.810;4.394;2022-10-30T07:04:40;25.00;;;10.75;;
23539;SDS011;11947;50.810;4.394;2022-10-30T07:07:05;28.48;;;11.32;;
23539;SDS011;11947;50.810;4.394;2022-10-30T07:09:31;26.88;;;10.88;;
23539;SDS011;11947;50.810;4.394;2022-10-30T07:11:57;30.10;;;11.73;;
23539;SDS011;11947;50.810;4.394;2022-10-30T07:14:22;29.42;;;13.52;;
23539;SDS011;11947;50.810;4.394;2022-10-30T07:16:48;29.40;;;13.45;;
23539;SDS011;11947;50.810;4.394;2022-10-30T07:19:14;35.72;;;13.85;;
23539;SDS011;11947;50.810;4.394;2022-10-30T07:21:40;31.73;;;13.35;;
23539;SDS011;11947;50.810;4.394;2022-10-30T07:24:05;25.95;;;12.43;;
23539;SDS011;11947;50.810;4.394;2022-10-30T07:26:31;31.23;;;13.07;;
23539;SDS011;11947;50.810;4.394;2022-10-30T07:29:01;28.15;;;12.60;;
23539;SDS011;11947;50.810;4.394;2022-10-30T07:31:28;29.10;;;12.82;;
23539;SDS011;11947;50.810;4.394;2022-10-30T07:33:53;28.85;;;12.57;;
23539;SDS011;11947;50.810;4.394;2022-10-30T07:36:19;29.90;;;12.30;;
23539;SDS011;11947;50.810;4.394;2022-10-30T07:38:46;33.35;;;13.13;;
23539;SDS011;11947;50.810;4.394;2022-10-30T07:41:12;31.05;;;12.15;;
23539;SDS011;11947;50.810;4.394;2022-10-30T07:43:38;32.38;;;12.10;;
23539;SDS011;11947;50.810;4.394;2022-10-30T07:46:04;37.80;;;13.05;;
23539;SDS011;11947;50.810;4.394;2022-10-30T07:48:30;28.17;;;11.95;;
23539;SDS011;11947;50.810;4.394;2022-10-30T07:50:55;24.85;;;11.75;;
23539;SDS011;11947;50.810;4.394;2022-10-30T07:53:21;29.42;;;12.32;;
23539;SDS011;11947;50.810;4.394;2022-10-30T07:55:47;27.98;;;12.00;;
23539;SDS011;11947;50.810;4.394;2022-10-30T07:58:13;30.30;;;12.65;;
23539;SDS011;11947;50.810;4.394;2022-10-30T08:00:41;27.95;;;11.55;;
23539;SDS011;11947;50.810;4.394;2022-10-30T08:03:07;26.55;;;12.98;;
23539;SDS011;11947;50.810;4.394;2022-10-30T08:05:34;31.52;;;13.85;;
23539;SDS011;11947;50.810;4.394;2022-10-30T08:08:00;41.60;;;18.70;;
23539;SDS011;11947;50.810;4.394;2022-10-30T08:10:26;40.50;;;18.15;;
23539;SDS011;11947;50.810;4.394;2022-10-30T08:12:53;41.30;;;19.50;;
23539;SDS011;11947;50.810;4.394;2022-10-30T08:15:19;42.83;;;18.48;;
23539;SDS011;11947;50.810;4.394;2022-10-30T08:17:46;38.20;;;18.50;;
23539;SDS011;11947;50.810;4.394;2022-10-30T08:20:16;45.13;;;19.08;;
23539;SDS011;11947;50.810;4.394;2022-10-30T08:22:49;44.42;;;18.85;;
23539;SDS011;11947;50.810;4.394;2022-10-30T08:25:18;35.95;;;18.40;;
23539;SDS011;11947;50.810;4.394;2022-10-30T08:27:50;45.35;;;19.17;;
23539;SDS011;11947;50.810;4.394;2022-10-30T08:30:28;35.60;;;18.75;;
23539;SDS011;11947;50.810;4.394;2022-10-30T08:33:03;39.30;;;17.08;;
23539;SDS011;11947;50.810;4.394;2022-10-30T08:35:31;34.42;;;16.63;;
23539;SDS011;11947;50.810;4.394;2022-10-30T08:37:57;38.25;;;16.40;;
23539;SDS011;11947;50.810;4.394;2022-10-30T08:40:24;32.50;;;14.70;;
23539;SDS011;11947;50.810;4.394;2022-10-30T08:42:51;29.55;;;13.10;;
23539;SDS011;11947;50.810;4.394;2022-10-30T08:45:18;29.67;;;10.63;;
23539;SDS011;11947;50.810;4.394;2022-10-30T08:47:44;21.73;;;8.82;;
23539;SDS011;11947;50.810;4.394;2022-10-30T08:50:10;25.42;;;8.20;;
23539;SDS011;11947;50.810;4.394;2022-10-30T08:52:36;23.42;;;7.70;;
23539;SDS011;11947;50.810;4.394;2022-10-30T08:55:01;21.45;;;8.68;;
23539;SDS011;11947;50.810;4.394;2022-10-30T08:57:27;20.98;;;8.18;;
23539;SDS011;11947;50.810;4.394;2022-10-30T08:59:55;22.52;;;8.45;;
23539;SDS011;11947;50.810;4.394;2022-10-30T09:02:21;21.83;;;7.68;;
23539;SDS011;11947;50.810;4.394;2022-10-30T09:04:47;21.00;;;8.40;;
23539;SDS011;11947;50.810;4.394;2022-10-30T09:07:12;29.60;;;8.68;;
23539;SDS011;11947;50.810;4.394;2022-10-30T09:09:38;25.05;;;7.55;;
23539;SDS011;11947;50.810;4.394;2022-10-30T09:12:03;22.25;;;8.48;;
23539;SDS011;11947;50.810;4.394;2022-10-30T09:14:29;20.83;;;8.55;;
23539;SDS011;11947;50.810;4.394;2022-10-30T09:16:55;21.35;;;8.00;;
23539;SDS011;11947;50.810;4.394;2022-10-30T09:19:20;20.40;;;7.80;;
23539;SDS011;11947;50.810;4.394;2022-10-30T09:21:46;18.88;;;8.05;;
23539;SDS011;11947;50.810;4.394;2022-10-30T09:24:13;19.80;;;7.90;;
23539;SDS011;11947;50.810;4.394;2022-10-30T09:26:38;26.02;;;8.40;;
23539;SDS011;11947;50.810;4.394;2022-10-30T09:29:04;20.35;;;7.75;;
23539;SDS011;11947;50.810;4.394;2022-10-30T09:31:30;22.08;;;8.27;;
23539;SDS011;11947;50.810;4.394;2022-10-30T09:33:57;23.13;;;8.30;;
23539;SDS011;11947;50.810;4.394;2022-10-30T09:36:24;27.52;;;8.10;;
23539;SDS011;11947;50.810;4.394;2022-10-30T09:38:50;22.33;;;8.25;;
23539;SDS011;11947;50.810;4.394;2022-10-30T09:41:24;23.08;;;7.85;;
23539;SDS011;11947;50.810;4.394;2022-10-30T09:52:40;24.20;;;7.60;;
23539;SDS011;11947;50.810;4.394;2022-10-30T09:55:36;18.38;;;7.10;;
23539;SDS011;11947;50.810;4.394;2022-10-30T09:58:47;20.80;;;7.45;;
23539;SDS011;11947;50.810;4.394;2022-10-30T10:04:24;21.17;;;7.28;;
23539;SDS011;11947;50.810;4.394;2022-10-30T10:07:01;20.92;;;8.23;;
23539;SDS011;11947;50.810;4.394;2022-10-30T10:09:32;20.83;;;7.30;;
23539;SDS011;11947;50.810;4.394;2022-10-30T10:12:01;22.85;;;8.40;;
23539;SDS011;11947;50.810;4.394;2022-10-30T10:14:33;26.23;;;8.18;;
23539;SDS011;11947;50.810;4.394;2022-10-30T10:17:02;24.25;;;7.85;;
23539;SDS011;11947;50.810;4.394;2022-10-30T10:19:48;23.63;;;8.07;;
23539;SDS011;11947;50.810;4.394;2022-10-30T10:22:25;22.73;;;8.18;;
23539;SDS011;11947;50.810;4.394;2022-10-30T10:25:04;21.48;;;7.93;;
23539;SDS011;11947;50.810;4.394;2022-10-30T10:27:40;23.58;;;8.60;;
23539;SDS011;11947;50.810;4.394;2022-10-30T10:35:44;24.80;;;8.00;;
23539;SDS011;11947;50.810;4.394;2022-10-30T10:43:55;28.48;;;8.95;;
23539;SDS011;11947;50.810;4.394;2022-10-30T10:51:41;28.13;;;8.38;;
23539;SDS011;11947;50.810;4.394;2022-10-30T10:54:22;28.00;;;9.10;;
23539;SDS011;11947;50.810;4.394;2022-10-30T10:56:52;28.52;;;9.18;;
23539;SDS011;11947;50.810;4.394;2022-10-30T10:59:25;29.15;;;8.90;;
23539;SDS011;11947;50.810;4.394;2022-10-30T11:04:38;29.38;;;8.43;;
23539;SDS011;11947;50.810;4.394;2022-10-30T11:07:21;21.38;;;8.55;;
23539;SDS011;11947;50.810;4.394;2022-10-30T11:09:52;27.17;;;8.18;;
23539;SDS011;11947;50.810;4.394;2022-10-30T11:12:22;22.73;;;8.32;;
23539;SDS011;11947;50.810;4.394;2022-10-30T11:14:51;25.10;;;8.35;;
23539;SDS011;11947;50.810;4.394;2022-10-30T11:17:21;26.77;;;8.75;;
23539;SDS011;11947;50.810;4.394;2022-10-30T11:19:57;22.77;;;8.95;;
23539;SDS011;11947;50.810;4.394;2022-10-30T11:25:20;22.75;;;9.25;;
23539;SDS011;11947;50.810;4.394;2022-10-30T11:28:00;23.83;;;9.65;;
23539;SDS011;11947;50.810;4.394;2022-10-30T11:30:28;29.83;;;9.13;;
23539;SDS011;11947;50.810;4.394;2022-10-30T11:32:54;23.15;;;8.90;;
23539;SDS011;11947;50.810;4.394;2022-10-30T11:35:22;28.48;;;9.30;;
23539;SDS011;11947;50.810;4.394;2022-10-30T11:37:49;26.27;;;9.45;;
23539;SDS011;11947;50.810;4.394;2022-10-30T11:40:44;28.65;;;9.60;;
23539;SDS011;11947;50.810;4.394;2022-10-30T11:43:12;26.98;;;9.18;;
23539;SDS011;11947;50.810;4.394;2022-10-30T11:45:42;30.45;;;8.80;;
23539;SDS011;11947;50.810;4.394;2022-10-30T11:48:13;24.30;;;9.30;;
23539;SDS011;11947;50.810;4.394;2022-10-30T11:51:01;26.08;;;8.80;;
23539;SDS011;11947;50.810;4.394;2022-10-30T11:53:39;23.65;;;8.25;;
23539;SDS011;11947;50.810;4.394;2022-10-30T11:56:12;25.15;;;9.07;;
23539;SDS011;11947;50.810;4.394;2022-10-30T11:58:41;26.73;;;9.50;;
23539;SDS011;11947;50.810;4.394;2022-10-30T12:01:21;25.95;;;8.75;;
23539;SDS011;11947;50.810;4.394;2022-10-30T12:07:35;25.08;;;8.35;;
23539;SDS011;11947;50.810;4.394;2022-10-30T12:10:00;22.48;;;7.95;;
23539;SDS011;11947;50.810;4.394;2022-10-30T12:12:30;21.95;;;8.68;;
23539;SDS011;11947;50.810;4.394;2022-10-30T12:15:16;24.75;;;8.05;;
23539;SDS011;11947;50.810;4.394;2022-10-30T12:18:00;23.27;;;8.45;;
23539;SDS011;11947;50.810;4.394;2022-10-30T12:20:29;24.95;;;7.68;;
23539;SDS011;11947;50.810;4.394;2022-10-30T12:23:07;22.15;;;7.38;;
23539;SDS011;11947;50.810;4.394;2022-10-30T12:25:34;20.10;;;7.68;;
23539;SDS011;11947;50.810;4.394;2022-10-30T12:28:11;18.08;;;7.82;;
23539;SDS011;11947;50.810;4.394;2022-10-30T12:31:23;22.80;;;7.75;;
23539;SDS011;11947;50.810;4.394;2022-10-30T12:36:12;18.13;;;6.65;;
23539;SDS011;11947;50.810;4.394;2022-10-30T12:41:22;22.50;;;6.18;;
23539;SDS011;11947;50.810;4.394;2022-10-30T12:44:02;19.50;;;6.10;;
23539;SDS011;11947;50.810;4.394;2022-10-30T12:46:43;22.25;;;6.50;;
23539;SDS011;11947;50.810;4.394;2022-10-30T12:49:18;19.50;;;5.97;;
23539;SDS011;11947;50.810;4.394;2022-10-30T12:51:51;17.17;;;6.65;;
23539;SDS011;11947;50.810;4.394;2022-10-30T12:56:55;17.05;;;6.18;;
23539;SDS011;11947;50.810;4.394;2022-10-30T13:02:22;12.63;;;6.22;;
23539;SDS011;11947;50.810;4.394;2022-10-30T13:05:30;19.77;;;7.53;;
23539;SDS011;11947;50.810;4.394;2022-10-30T13:10:59;20.85;;;6.78;;
23539;SDS011;11947;50.810;4.394;2022-10-30T13:13:34;16.65;;;6.72;;
23539;SDS011;11947;50.810;4.394;2022-10-30T13:16:05;15.27;;;6.05;;
23539;SDS011;11947;50.810;4.394;2022-10-30T13:18:36;15.25;;;6.10;;
23539;SDS011;11947;50.810;4.394;2022-10-30T13:31:44;19.85;;;6.45;;
23539;SDS011;11947;50.810;4.394;2022-10-30T13:34:36;15.27;;;6.35;;
23539;SDS011;11947;50.810;4.394;2022-10-30T13:43:09;23.15;;;6.75;;
23539;SDS011;11947;50.810;4.394;2022-10-30T13:49:25;20.30;;;5.88;;
23539;SDS011;11947;50.810;4.394;2022-10-30T13:52:17;17.25;;;6.00;;
23539;SDS011;11947;50.810;4.394;2022-10-30T13:57:16;20.27;;;5.75;;
23539;SDS011;11947;50.810;4.394;2022-10-30T14:03:19;20.80;;;6.45;;
23539;SDS011;11947;50.810;4.394;2022-10-30T14:08:41;18.55;;;6.00;;
23539;SDS011;11947;50.810;4.394;2022-10-30T14:14:23;22.52;;;6.35;;
23539;SDS011;11947;50.810;4.394;2022-10-30T14:17:09;27.98;;;6.30;;
23539;SDS011;11947;50.810;4.394;2022-10-30T14:22:33;23.40;;;6.40;;
23539;SDS011;11947;50.810;4.394;2022-10-30T14:25:00;21.92;;;6.40;;
23539;SDS011;11947;50.810;4.394;2022-10-30T14:27:27;23.73;;;6.85;;
23539;SDS011;11947;50.810;4.394;2022-10-30T14:29:57;20.10;;;6.63;;
23539;SDS011;11947;50.810;4.394;2022-10-30T14:39:47;19.60;;;7.77;;
23539;SDS011;11947;50.810;4.394;2022-10-30T14:42:30;26.45;;;7.80;;
23539;SDS011;11947;50.810;4.394;2022-10-30T14:50:32;26.45;;;8.85;;
23539;SDS011;11947;50.810;4.394;2022-10-30T14:53:16;28.13;;;8.63;;
23539;SDS011;11947;50.810;4.394;2022-10-30T14:58:41;28.67;;;8.63;;
23539;SDS011;11947;50.810;4.394;2022-10-30T15:01:18;22.38;;;8.77;;
23539;SDS011;11947;50.810;4.394;2022-10-30T15:04:06;22.02;;;9.65;;
23539;SDS011;11947;50.810;4.394;2022-10-30T15:09:43;29.25;;;10.23;;
23539;SDS011;11947;50.810;4.394;2022-10-30T15:15:08;23.30;;;10.50;;
23539;SDS011;11947;50.810;4.394;2022-10-30T15:17:45;25.77;;;10.55;;
23539;SDS011;11947;50.810;4.394;2022-10-30T15:20:15;29.55;;;10.60;;
23539;SDS011;11947;50.810;4.394;2022-10-30T15:22:51;27.95;;;11.13;;
23539;SDS011;11947;50.810;4.394;2022-10-30T15:27:52;23.95;;;10.43;;
23539;SDS011;11947;50.810;4.394;2022-10-30T15:30:24;33.58;;;11.07;;
23539;SDS011;11947;50.810;4.394;2022-10-30T15:32:51;24.60;;;10.07;;
23539;SDS011;11947;50.810;4.394;2022-10-30T15:35:21;32.67;;;11.40;;
23539;SDS011;11947;50.810;4.394;2022-10-30T15:38:06;28.05;;;11.20;;
23539;SDS011;11947;50.810;4.394;2022-10-30T15:40:38;25.52;;;11.90;;
23539;SDS011;11947;50.810;4.394;2022-10-30T15:43:04;30.95;;;12.50;;
23539;SDS011;11947;50.810;4.394;2022-10-30T15:45:33;27.98;;;11.45;;
23539;SDS011;11947;50.810;4.394;2022-10-30T15:50:42;33.17;;;12.82;;
23539;SDS011;11947;50.810;4.394;2022-10-30T15:53:19;31.60;;;12.00;;
23539;SDS011;11947;50.810;4.394;2022-10-30T15:55:48;25.90;;;12.98;;
23539;SDS011;11947;50.810;4.394;2022-10-30T15:58:16;28.30;;;11.70;;
23539;SDS011;11947;50.810;4.394;2022-10-30T16:00:58;33.50;;;12.98;;
23539;SDS011;11947;50.810;4.394;2022-10-30T16:03:28;25.80;;;11.88;;
23539;SDS011;11947;50.810;4.394;2022-10-30T16:06:14;29.55;;;12.23;;
23539;SDS011;11947;50.810;4.394;2022-10-30T16:08:42;33.53;;;12.15;;
23539;SDS011;11947;50.810;4.394;2022-10-30T16:11:12;29.70;;;11.95;;
23539;SDS011;11947;50.810;4.394;2022-10-30T16:13:39;29.10;;;12.57;;
23539;SDS011;11947;50.810;4.394;2022-10-30T16:16:08;31.42;;;12.82;;
23539;SDS011;11947;50.810;4.394;2022-10-30T16:18:57;31.17;;;12.50;;
23539;SDS011;11947;50.810;4.394;2022-10-30T16:21:28;29.40;;;12.93;;
23539;SDS011;11947;50.810;4.394;2022-10-30T16:24:15;30.38;;;13.07;;
23539;SDS011;11947;50.810;4.394;2022-10-30T16:26:44;22.83;;;12.10;;
23539;SDS011;11947;50.810;4.394;2022-10-30T16:31:42;32.45;;;13.90;;
23539;SDS011;11947;50.810;4.394;2022-10-30T16:36:49;31.67;;;13.52;;
23539;SDS011;11947;50.810;4.394;2022-10-30T16:39:15;34.17;;;14.05;;
23539;SDS011;11947;50.810;4.394;2022-10-30T16:41:43;29.33;;;13.35;;
23539;SDS011;11947;50.810;4.394;2022-10-30T16:44:12;27.00;;;14.32;;
23539;SDS011;11947;50.810;4.394;2022-10-30T16:49:13;29.75;;;12.60;;
23539;SDS011;11947;50.810;4.394;2022-10-30T16:51:54;36.42;;;13.45;;
23539;SDS011;11947;50.810;4.394;2022-10-30T16:54:36;30.83;;;13.25;;
23539;SDS011;11947;50.810;4.394;2022-10-30T16:57:08;37.38;;;14.27;;
23539;SDS011;11947;50.810;4.394;2022-10-30T16:59:43;28.45;;;13.75;;
23539;SDS011;11947;50.810;4.394;2022-10-30T17:04:41;26.65;;;12.93;;
23539;SDS011;11947;50.810;4.394;2022-10-30T17:07:19;42.13;;;14.57;;
23539;SDS011;11947;50.810;4.394;2022-10-30T17:09:48;31.75;;;14.27;;